sensor_id;sensor_type;location;lat;lon;timestamp;temperature;humidity
50907;DHT22;36882;27.680;85.304;2022-10-16T00:01:46;20.90;98.70
50907;DHT22;36882;27.680;85.304;2022-10-16T00:04:17;21.00;98.60
50907;DHT22;36882;27.680;85.304;2022-10-16T00:06:47;20.90;98.80
50907;DHT22;36882;27.680;85.304;2022-10-16T00:09:17;20.90;98.80
50907;DHT22;36882;27.680;85.304;2022-10-16T00:11:47;20.90;98.60
50907;DHT22;36882;27.680;85.304;2022-10-16T00:14:17;20.90;98.40
50907;DHT22;36882;27.680;85.304;2022-10-16T00:16:47;21.00;98.30
50907;DHT22;36882;27.680;85.304;2022-10-16T00:19:16;20.90;97.70
50907;DHT22;36882;27.680;85.304;2022-10-16T00:21:46;20.80;97.60
50907;DHT22;36882;27.680;85.304;2022-10-16T00:24:16;20.90;97.40
50907;DHT22;36882;27.680;85.304;2022-10-16T00:26:49;20.90;97.40
50907;DHT22;36882;27.680;85.304;2022-10-16T00:29:20;20.80;97.10
50907;DHT22;36882;27.680;85.304;2022-10-16T00:31:50;20.80;97.30
50907;DHT22;36882;27.680;85.304;2022-10-16T00:34:19;20.80;97.20
50907;DHT22;36882;27.680;85.304;2022-10-16T00:36:49;20.80;97.00
50907;DHT22;36882;27.680;85.304;2022-10-16T00:39:19;20.80;97.10
50907;DHT22;36882;27.680;85.304;2022-10-16T00:41:51;20.80;97.10
50907;DHT22;36882;27.680;85.304;2022-10-16T00:44:42;20.80;97.20
50907;DHT22;36882;27.680;85.304;2022-10-16T00:47:18;20.70;97.20
50907;DHT22;36882;27.680;85.304;2022-10-16T00:49:51;20.70;97.10
50907;DHT22;36882;27.680;85.304;2022-10-16T00:52:22;20.70;96.90
50907;DHT22;36882;27.680;85.304;2022-10-16T00:54:54;20.70;97.00
50907;DHT22;36882;27.680;85.304;2022-10-16T00:57:25;20.70;96.90
50907;DHT22;36882;27.680;85.304;2022-10-16T00:59:55;20.60;96.90
50907;DHT22;36882;27.680;85.304;2022-10-16T01:02:26;20.60;97.00
50907;DHT22;36882;27.680;85.304;2022-10-16T01:04:56;20.50;96.90
50907;DHT22;36882;27.680;85.304;2022-10-16T01:07:53;20.50;96.80
50907;DHT22;36882;27.680;85.304;2022-10-16T01:10:35;20.50;96.90
50907;DHT22;36882;27.680;85.304;2022-10-16T01:13:24;20.50;96.80
50907;DHT22;36882;27.680;85.304;2022-10-16T01:16:03;20.50;96.60
50907;DHT22;36882;27.680;85.304;2022-10-16T01:18:43;20.50;96.60
50907;DHT22;36882;27.680;85.304;2022-10-16T01:21:35;20.50;96.40
50907;DHT22;36882;27.680;85.304;2022-10-16T01:24:33;20.60;96.50
50907;DHT22;36882;27.680;85.304;2022-10-16T01:27:14;20.60;96.10
50907;DHT22;36882;27.680;85.304;2022-10-16T01:32:42;20.80;96.10
50907;DHT22;36882;27.680;85.304;2022-10-16T01:35:35;20.80;95.90
50907;DHT22;36882;27.680;85.304;2022-10-16T01:38:12;20.80;95.60
50907;DHT22;36882;27.680;85.304;2022-10-16T01:40:51;20.90;95.50
50907;DHT22;36882;27.680;85.304;2022-10-16T01:43:28;21.00;95.40
50907;DHT22;36882;27.680;85.304;2022-10-16T01:46:01;21.00;95.40
50907;DHT22;36882;27.680;85.304;2022-10-16T01:48:32;21.10;95.00
50907;DHT22;36882;27.680;85.304;2022-10-16T01:51:08;21.20;94.80
50907;DHT22;36882;27.680;85.304;2022-10-16T01:53:40;21.30;94.70
50907;DHT22;36882;27.680;85.304;2022-10-16T01:56:12;21.40;94.50
50907;DHT22;36882;27.680;85.304;2022-10-16T01:58:49;21.50;94.40
50907;DHT22;36882;27.680;85.304;2022-10-16T02:01:23;21.60;94.40
50907;DHT22;36882;27.680;85.304;2022-10-16T02:03:57;21.80;94.40
50907;DHT22;36882;27.680;85.304;2022-10-16T02:06:29;21.90;94.10
50907;DHT22;36882;27.680;85.304;2022-10-16T02:08:59;22.10;94.00
50907;DHT22;36882;27.680;85.304;2022-10-16T02:11:31;22.30;93.70
50907;DHT22;36882;27.680;85.304;2022-10-16T02:14:03;22.40;93.40
50907;DHT22;36882;27.680;85.304;2022-10-16T02:16:38;22.50;93.40
50907;DHT22;36882;27.680;85.304;2022-10-16T02:19:09;22.70;92.90
50907;DHT22;36882;27.680;85.304;2022-10-16T02:21:54;22.80;93.00
50907;DHT22;36882;27.680;85.304;2022-10-16T02:27:38;23.00;92.80
50907;DHT22;36882;27.680;85.304;2022-10-16T02:30:22;23.10;92.50
50907;DHT22;36882;27.680;85.304;2022-10-16T02:32:54;23.10;92.70
50907;DHT22;36882;27.680;85.304;2022-10-16T02:35:26;23.00;93.60
50907;DHT22;36882;27.680;85.304;2022-10-16T02:37:57;23.00;93.60
50907;DHT22;36882;27.680;85.304;2022-10-16T02:40:28;23.10;93.20
50907;DHT22;36882;27.680;85.304;2022-10-16T02:42:58;23.10;93.80
50907;DHT22;36882;27.680;85.304;2022-10-16T02:45:28;23.20;93.60
50907;DHT22;36882;27.680;85.304;2022-10-16T02:47:59;23.20;93.10
50907;DHT22;36882;27.680;85.304;2022-10-16T02:50:29;23.20;93.50
50907;DHT22;36882;27.680;85.304;2022-10-16T02:53:01;23.30;93.00
50907;DHT22;36882;27.680;85.304;2022-10-16T02:55:30;23.20;93.20
50907;DHT22;36882;27.680;85.304;2022-10-16T02:58:00;23.10;93.60
50907;DHT22;36882;27.680;85.304;2022-10-16T03:00:30;23.10;93.60
50907;DHT22;36882;27.680;85.304;2022-10-16T03:03:00;23.00;93.60
50907;DHT22;36882;27.680;85.304;2022-10-16T03:05:29;22.90;93.90
50907;DHT22;36882;27.680;85.304;2022-10-16T03:07:59;23.00;94.10
50907;DHT22;36882;27.680;85.304;2022-10-16T03:10:30;23.00;94.20
50907;DHT22;36882;27.680;85.304;2022-10-16T03:12:59;23.10;93.70
50907;DHT22;36882;27.680;85.304;2022-10-16T03:15:29;23.20;93.40
50907;DHT22;36882;27.680;85.304;2022-10-16T03:18:00;23.20;92.90
50907;DHT22;36882;27.680;85.304;2022-10-16T03:20:30;23.20;93.00
50907;DHT22;36882;27.680;85.304;2022-10-16T03:23:00;23.20;93.20
50907;DHT22;36882;27.680;85.304;2022-10-16T03:25:31;23.10;92.40
50907;DHT22;36882;27.680;85.304;2022-10-16T03:28:01;23.10;93.00
50907;DHT22;36882;27.680;85.304;2022-10-16T03:30:32;23.10;92.90
50907;DHT22;36882;27.680;85.304;2022-10-16T03:33:03;23.10;92.50
50907;DHT22;36882;27.680;85.304;2022-10-16T03:35:33;23.30;92.50
50907;DHT22;36882;27.680;85.304;2022-10-16T03:38:05;23.30;92.70
50907;DHT22;36882;27.680;85.304;2022-10-16T03:40:37;23.50;92.30
50907;DHT22;36882;27.680;85.304;2022-10-16T03:43:07;23.60;90.90
50907;DHT22;36882;27.680;85.304;2022-10-16T03:45:36;23.50;91.00
50907;DHT22;36882;27.680;85.304;2022-10-16T03:48:06;23.50;90.80
50907;DHT22;36882;27.680;85.304;2022-10-16T03:50:36;23.40;91.70
50907;DHT22;36882;27.680;85.304;2022-10-16T03:53:07;23.40;91.10
50907;DHT22;36882;27.680;85.304;2022-10-16T03:55:37;23.40;90.70
50907;DHT22;36882;27.680;85.304;2022-10-16T03:58:08;23.40;90.80
50907;DHT22;36882;27.680;85.304;2022-10-16T04:00:46;23.70;90.50
50907;DHT22;36882;27.680;85.304;2022-10-16T04:03:17;23.60;90.00
50907;DHT22;36882;27.680;85.304;2022-10-16T04:05:48;23.60;90.30
50907;DHT22;36882;27.680;85.304;2022-10-16T04:08:18;23.70;90.20
50907;DHT22;36882;27.680;85.304;2022-10-16T04:10:48;23.70;90.60
50907;DHT22;36882;27.680;85.304;2022-10-16T04:13:18;23.80;90.60
50907;DHT22;36882;27.680;85.304;2022-10-16T04:15:48;23.90;90.30
50907;DHT22;36882;27.680;85.304;2022-10-16T04:18:18;24.00;89.40
50907;DHT22;36882;27.680;85.304;2022-10-16T04:20:48;24.10;89.70
50907;DHT22;36882;27.680;85.304;2022-10-16T04:23:18;24.10;89.00
50907;DHT22;36882;27.680;85.304;2022-10-16T04:25:48;24.20;88.70
50907;DHT22;36882;27.680;85.304;2022-10-16T04:28:17;24.30;87.80
50907;DHT22;36882;27.680;85.304;2022-10-16T04:30:47;24.40;87.30
50907;DHT22;36882;27.680;85.304;2022-10-16T04:33:17;24.40;85.50
50907;DHT22;36882;27.680;85.304;2022-10-16T04:35:47;24.40;85.20
50907;DHT22;36882;27.680;85.304;2022-10-16T04:38:17;24.40;84.60
50907;DHT22;36882;27.680;85.304;2022-10-16T04:40:47;24.40;86.00
50907;DHT22;36882;27.680;85.304;2022-10-16T04:43:17;24.40;84.70
50907;DHT22;36882;27.680;85.304;2022-10-16T04:45:47;24.60;85.70
50907;DHT22;36882;27.680;85.304;2022-10-16T04:48:19;24.60;86.50
50907;DHT22;36882;27.680;85.304;2022-10-16T04:50:49;24.60;85.20
50907;DHT22;36882;27.680;85.304;2022-10-16T04:53:22;24.70;84.90
50907;DHT22;36882;27.680;85.304;2022-10-16T04:55:52;24.70;86.00
50907;DHT22;36882;27.680;85.304;2022-10-16T04:58:22;24.70;83.50
50907;DHT22;36882;27.680;85.304;2022-10-16T05:00:52;24.90;81.30
50907;DHT22;36882;27.680;85.304;2022-10-16T05:03:21;25.00;81.30
50907;DHT22;36882;27.680;85.304;2022-10-16T05:05:51;25.10;80.30
50907;DHT22;36882;27.680;85.304;2022-10-16T05:08:21;25.30;81.30
50907;DHT22;36882;27.680;85.304;2022-10-16T05:10:51;25.40;82.70
50907;DHT22;36882;27.680;85.304;2022-10-16T05:13:20;25.50;69.70
50907;DHT22;36882;27.680;85.304;2022-10-16T05:15:50;25.60;68.40
50907;DHT22;36882;27.680;85.304;2022-10-16T05:18:19;25.70;68.10
50907;DHT22;36882;27.680;85.304;2022-10-16T05:20:49;25.80;71.70
50907;DHT22;36882;27.680;85.304;2022-10-16T05:23:18;25.80;73.20
50907;DHT22;36882;27.680;85.304;2022-10-16T05:26:03;25.80;73.10
50907;DHT22;36882;27.680;85.304;2022-10-16T05:28:33;25.80;69.20
50907;DHT22;36882;27.680;85.304;2022-10-16T05:31:06;25.90;72.10
50907;DHT22;36882;27.680;85.304;2022-10-16T05:33:37;25.90;70.00
50907;DHT22;36882;27.680;85.304;2022-10-16T05:36:09;25.90;71.30
50907;DHT22;36882;27.680;85.304;2022-10-16T05:38:41;26.00;71.40
50907;DHT22;36882;27.680;85.304;2022-10-16T05:41:11;26.00;67.80
50907;DHT22;36882;27.680;85.304;2022-10-16T05:43:41;26.10;66.30
50907;DHT22;36882;27.680;85.304;2022-10-16T05:46:10;26.10;65.20
50907;DHT22;36882;27.680;85.304;2022-10-16T05:48:40;26.10;69.00
50907;DHT22;36882;27.680;85.304;2022-10-16T05:51:12;26.10;68.10
50907;DHT22;36882;27.680;85.304;2022-10-16T05:53:43;26.30;66.10
50907;DHT22;36882;27.680;85.304;2022-10-16T05:56:13;26.30;65.40
50907;DHT22;36882;27.680;85.304;2022-10-16T05:58:43;26.40;64.10
50907;DHT22;36882;27.680;85.304;2022-10-16T06:01:16;26.40;64.40
50907;DHT22;36882;27.680;85.304;2022-10-16T06:03:47;26.50;63.60
50907;DHT22;36882;27.680;85.304;2022-10-16T06:06:20;26.60;64.80
50907;DHT22;36882;27.680;85.304;2022-10-16T06:08:51;26.70;65.60
50907;DHT22;36882;27.680;85.304;2022-10-16T06:11:24;26.60;69.60
50907;DHT22;36882;27.680;85.304;2022-10-16T06:13:56;26.60;67.40
50907;DHT22;36882;27.680;85.304;2022-10-16T06:16:27;26.60;68.90
50907;DHT22;36882;27.680;85.304;2022-10-16T06:18:57;26.70;66.60
50907;DHT22;36882;27.680;85.304;2022-10-16T06:21:29;26.60;66.10
50907;DHT22;36882;27.680;85.304;2022-10-16T06:23:59;26.70;67.70
50907;DHT22;36882;27.680;85.304;2022-10-16T06:26:31;26.60;68.30
50907;DHT22;36882;27.680;85.304;2022-10-16T06:29:01;26.60;65.00
50907;DHT22;36882;27.680;85.304;2022-10-16T06:31:31;26.70;67.70
50907;DHT22;36882;27.680;85.304;2022-10-16T06:34:02;26.70;66.10
50907;DHT22;36882;27.680;85.304;2022-10-16T06:36:34;26.80;67.40
50907;DHT22;36882;27.680;85.304;2022-10-16T06:39:05;27.00;65.50
50907;DHT22;36882;27.680;85.304;2022-10-16T06:41:36;27.10;65.90
50907;DHT22;36882;27.680;85.304;2022-10-16T06:44:07;27.00;63.90
50907;DHT22;36882;27.680;85.304;2022-10-16T06:46:38;27.10;66.30
50907;DHT22;36882;27.680;85.304;2022-10-16T06:49:08;27.20;66.90
50907;DHT22;36882;27.680;85.304;2022-10-16T06:51:39;27.20;67.90
50907;DHT22;36882;27.680;85.304;2022-10-16T06:54:10;27.30;66.40
50907;DHT22;36882;27.680;85.304;2022-10-16T06:56:41;27.30;68.40
50907;DHT22;36882;27.680;85.304;2022-10-16T06:59:12;27.30;66.10
50907;DHT22;36882;27.680;85.304;2022-10-16T07:01:43;27.20;67.00
50907;DHT22;36882;27.680;85.304;2022-10-16T07:04:14;27.10;66.20
50907;DHT22;36882;27.680;85.304;2022-10-16T07:06:44;27.00;68.80
50907;DHT22;36882;27.680;85.304;2022-10-16T07:09:15;27.10;67.60
50907;DHT22;36882;27.680;85.304;2022-10-16T07:11:46;27.20;69.70
50907;DHT22;36882;27.680;85.304;2022-10-16T07:14:18;27.20;67.50
50907;DHT22;36882;27.680;85.304;2022-10-16T07:16:49;27.10;66.10
50907;DHT22;36882;27.680;85.304;2022-10-16T07:19:19;27.20;67.00
50907;DHT22;36882;27.680;85.304;2022-10-16T07:21:50;27.20;66.90
50907;DHT22;36882;27.680;85.304;2022-10-16T07:24:21;27.20;65.60
50907;DHT22;36882;27.680;85.304;2022-10-16T07:26:53;27.20;67.40
50907;DHT22;36882;27.680;85.304;2022-10-16T07:29:24;27.30;68.80
50907;DHT22;36882;27.680;85.304;2022-10-16T07:31:54;27.40;65.20
50907;DHT22;36882;27.680;85.304;2022-10-16T07:34:25;27.40;68.70
50907;DHT22;36882;27.680;85.304;2022-10-16T07:36:56;27.10;68.50
50907;DHT22;36882;27.680;85.304;2022-10-16T07:39:26;27.20;72.80
50907;DHT22;36882;27.680;85.304;2022-10-16T07:41:57;27.20;73.80
50907;DHT22;36882;27.680;85.304;2022-10-16T07:44:28;27.10;73.40
50907;DHT22;36882;27.680;85.304;2022-10-16T07:47:00;27.20;72.90
50907;DHT22;36882;27.680;85.304;2022-10-16T07:49:30;27.20;73.90
50907;DHT22;36882;27.680;85.304;2022-10-16T07:52:01;27.10;73.40
50907;DHT22;36882;27.680;85.304;2022-10-16T07:54:32;27.20;74.70
50907;DHT22;36882;27.680;85.304;2022-10-16T07:57:02;27.20;75.60
50907;DHT22;36882;27.680;85.304;2022-10-16T07:59:32;27.20;74.60
50907;DHT22;36882;27.680;85.304;2022-10-16T08:02:03;27.10;75.90
50907;DHT22;36882;27.680;85.304;2022-10-16T08:04:34;27.20;75.10
50907;DHT22;36882;27.680;85.304;2022-10-16T08:07:07;27.20;76.30
50907;DHT22;36882;27.680;85.304;2022-10-16T08:09:38;27.10;76.80
50907;DHT22;36882;27.680;85.304;2022-10-16T08:12:08;26.90;75.90
50907;DHT22;36882;27.680;85.304;2022-10-16T08:14:40;26.80;77.40
50907;DHT22;36882;27.680;85.304;2022-10-16T08:17:15;26.80;77.40
50907;DHT22;36882;27.680;85.304;2022-10-16T08:19:46;26.90;76.90
50907;DHT22;36882;27.680;85.304;2022-10-16T08:22:17;26.90;77.30
50907;DHT22;36882;27.680;85.304;2022-10-16T08:24:47;26.80;77.90
50907;DHT22;36882;27.680;85.304;2022-10-16T08:27:18;26.80;78.00
50907;DHT22;36882;27.680;85.304;2022-10-16T08:29:49;26.80;77.10
50907;DHT22;36882;27.680;85.304;2022-10-16T08:32:20;26.90;77.30
50907;DHT22;36882;27.680;85.304;2022-10-16T08:34:54;26.70;77.80
50907;DHT22;36882;27.680;85.304;2022-10-16T08:37:24;26.60;79.00
50907;DHT22;36882;27.680;85.304;2022-10-16T08:39:55;26.60;79.30
50907;DHT22;36882;27.680;85.304;2022-10-16T08:42:44;26.70;77.50
50907;DHT22;36882;27.680;85.304;2022-10-16T08:48:42;26.70;79.80
50907;DHT22;36882;27.680;85.304;2022-10-16T08:51:19;26.70;77.80
50907;DHT22;36882;27.680;85.304;2022-10-16T08:53:56;26.60;76.90
50907;DHT22;36882;27.680;85.304;2022-10-16T08:56:28;26.50;78.30
50907;DHT22;36882;27.680;85.304;2022-10-16T08:58:59;26.60;78.50
50907;DHT22;36882;27.680;85.304;2022-10-16T09:01:42;26.40;76.90
50907;DHT22;36882;27.680;85.304;2022-10-16T09:05:08;26.50;78.10
50907;DHT22;36882;27.680;85.304;2022-10-16T09:13:42;26.40;78.30
50907;DHT22;36882;27.680;85.304;2022-10-16T09:16:33;26.40;79.00
50907;DHT22;36882;27.680;85.304;2022-10-16T09:19:25;26.30;77.90
50907;DHT22;36882;27.680;85.304;2022-10-16T09:22:01;26.40;77.90
50907;DHT22;36882;27.680;85.304;2022-10-16T09:24:38;26.40;78.60
50907;DHT22;36882;27.680;85.304;2022-10-16T09:27:12;26.30;77.80
50907;DHT22;36882;27.680;85.304;2022-10-16T09:29:43;26.30;78.60
50907;DHT22;36882;27.680;85.304;2022-10-16T09:32:17;26.30;78.70
50907;DHT22;36882;27.680;85.304;2022-10-16T09:34:50;26.40;78.00
50907;DHT22;36882;27.680;85.304;2022-10-16T09:37:22;26.40;78.40
50907;DHT22;36882;27.680;85.304;2022-10-16T09:39:54;26.50;78.80
50907;DHT22;36882;27.680;85.304;2022-10-16T09:42:31;26.40;77.90
50907;DHT22;36882;27.680;85.304;2022-10-16T09:45:04;26.50;78.00
50907;DHT22;36882;27.680;85.304;2022-10-16T09:47:39;26.20;79.80
50907;DHT22;36882;27.680;85.304;2022-10-16T09:50:28;26.20;81.20
50907;DHT22;36882;27.680;85.304;2022-10-16T09:53:12;26.20;79.00
50907;DHT22;36882;27.680;85.304;2022-10-16T09:55:51;26.20;82.60
50907;DHT22;36882;27.680;85.304;2022-10-16T09:58:23;26.10;83.60
50907;DHT22;36882;27.680;85.304;2022-10-16T10:00:54;26.20;83.90
50907;DHT22;36882;27.680;85.304;2022-10-16T10:03:38;26.20;85.50
50907;DHT22;36882;27.680;85.304;2022-10-16T10:06:23;26.20;84.90
50907;DHT22;36882;27.680;85.304;2022-10-16T10:09:02;26.20;85.30
50907;DHT22;36882;27.680;85.304;2022-10-16T10:11:54;26.20;85.80
50907;DHT22;36882;27.680;85.304;2022-10-16T10:14:35;26.20;86.20
50907;DHT22;36882;27.680;85.304;2022-10-16T10:17:12;26.20;85.90
50907;DHT22;36882;27.680;85.304;2022-10-16T10:19:48;26.10;86.10
50907;DHT22;36882;27.680;85.304;2022-10-16T10:22:29;26.00;87.00
50907;DHT22;36882;27.680;85.304;2022-10-16T10:25:24;26.00;88.10
50907;DHT22;36882;27.680;85.304;2022-10-16T10:34:04;25.70;88.60
50907;DHT22;36882;27.680;85.304;2022-10-16T10:36:42;25.60;90.00
50907;DHT22;36882;27.680;85.304;2022-10-16T10:39:41;25.60;90.10
50907;DHT22;36882;27.680;85.304;2022-10-16T10:42:34;25.50;90.50
50907;DHT22;36882;27.680;85.304;2022-10-16T10:51:13;25.30;90.90
50907;DHT22;36882;27.680;85.304;2022-10-16T10:54:02;25.30;91.00
50907;DHT22;36882;27.680;85.304;2022-10-16T10:56:49;25.20;91.60
50907;DHT22;36882;27.680;85.304;2022-10-16T10:59:47;25.10;91.40
50907;DHT22;36882;27.680;85.304;2022-10-16T11:05:41;24.90;91.80
50907;DHT22;36882;27.680;85.304;2022-10-16T11:08:20;24.80;92.20
50907;DHT22;36882;27.680;85.304;2022-10-16T11:10:58;24.60;92.50
50907;DHT22;36882;27.680;85.304;2022-10-16T11:13:52;24.60;92.70
50907;DHT22;36882;27.680;85.304;2022-10-16T11:16:36;24.60;92.60
50907;DHT22;36882;27.680;85.304;2022-10-16T11:19:36;24.60;92.60
50907;DHT22;36882;27.680;85.304;2022-10-16T11:25:32;24.40;92.80
50907;DHT22;36882;27.680;85.304;2022-10-16T11:31:08;24.20;93.00
50907;DHT22;36882;27.680;85.304;2022-10-16T11:34:02;24.20;93.00
50907;DHT22;36882;27.680;85.304;2022-10-16T11:36:53;24.10;93.10
50907;DHT22;36882;27.680;85.304;2022-10-16T11:39:28;24.00;93.50
50907;DHT22;36882;27.680;85.304;2022-10-16T11:42:13;24.00;93.60
50907;DHT22;36882;27.680;85.304;2022-10-16T11:47:45;23.80;94.20
50907;DHT22;36882;27.680;85.304;2022-10-16T11:50:50;23.80;94.30
50907;DHT22;36882;27.680;85.304;2022-10-16T11:56:20;23.60;94.40
50907;DHT22;36882;27.680;85.304;2022-10-16T11:59:14;23.60;94.30
50907;DHT22;36882;27.680;85.304;2022-10-16T12:01:54;23.50;94.50
50907;DHT22;36882;27.680;85.304;2022-10-16T12:04:39;23.50;94.50
50907;DHT22;36882;27.680;85.304;2022-10-16T12:07:21;23.40;94.40
50907;DHT22;36882;27.680;85.304;2022-10-16T12:09:54;23.40;94.50
50907;DHT22;36882;27.680;85.304;2022-10-16T12:12:36;23.40;94.60
50907;DHT22;36882;27.680;85.304;2022-10-16T12:15:22;23.40;94.40
50907;DHT22;36882;27.680;85.304;2022-10-16T12:18:27;23.30;94.20
50907;DHT22;36882;27.680;85.304;2022-10-16T12:20:58;23.30;94.60
50907;DHT22;36882;27.680;85.304;2022-10-16T12:23:37;23.30;94.40
50907;DHT22;36882;27.680;85.304;2022-10-16T12:26:08;23.20;94.60
50907;DHT22;36882;27.680;85.304;2022-10-16T12:28:39;23.10;94.40
50907;DHT22;36882;27.680;85.304;2022-10-16T12:31:11;23.10;94.30
50907;DHT22;36882;27.680;85.304;2022-10-16T12:33:58;23.00;94.50
50907;DHT22;36882;27.680;85.304;2022-10-16T12:36:35;23.00;94.40
50907;DHT22;36882;27.680;85.304;2022-10-16T12:39:05;23.00;94.10
50907;DHT22;36882;27.680;85.304;2022-10-16T12:41:36;23.00;94.20
50907;DHT22;36882;27.680;85.304;2022-10-16T12:44:25;23.00;94.10
50907;DHT22;36882;27.680;85.304;2022-10-16T12:46:56;23.00;94.10
50907;DHT22;36882;27.680;85.304;2022-10-16T12:49:37;23.00;94.20
50907;DHT22;36882;27.680;85.304;2022-10-16T12:52:26;22.90;93.90
50907;DHT22;36882;27.680;85.304;2022-10-16T12:54:57;22.90;93.90
50907;DHT22;36882;27.680;85.304;2022-10-16T13:00:59;22.80;94.20
50907;DHT22;36882;27.680;85.304;2022-10-16T13:03:48;22.80;94.10
50907;DHT22;36882;27.680;85.304;2022-10-16T13:09:46;22.70;94.30
50907;DHT22;36882;27.680;85.304;2022-10-16T13:15:44;22.60;94.00
50907;DHT22;36882;27.680;85.304;2022-10-16T13:18:32;22.60;94.00
50907;DHT22;36882;27.680;85.304;2022-10-16T13:24:14;22.50;93.90
50907;DHT22;36882;27.680;85.304;2022-10-16T13:29:42;22.50;93.90
50907;DHT22;36882;27.680;85.304;2022-10-16T13:32:15;22.50;93.80
50907;DHT22;36882;27.680;85.304;2022-10-16T13:34:47;22.50;93.80
50907;DHT22;36882;27.680;85.304;2022-10-16T13:37:23;22.40;94.00
50907;DHT22;36882;27.680;85.304;2022-10-16T13:40:17;22.40;93.30
50907;DHT22;36882;27.680;85.304;2022-10-16T13:42:48;22.30;92.80
50907;DHT22;36882;27.680;85.304;2022-10-16T13:45:24;22.30;92.70
50907;DHT22;36882;27.680;85.304;2022-10-16T13:48:04;22.20;92.40
50907;DHT22;36882;27.680;85.304;2022-10-16T13:50:34;22.20;92.20
50907;DHT22;36882;27.680;85.304;2022-10-16T13:53:06;22.20;92.70
50907;DHT22;36882;27.680;85.304;2022-10-16T13:55:36;22.10;92.50
50907;DHT22;36882;27.680;85.304;2022-10-16T13:58:11;22.10;92.60
50907;DHT22;36882;27.680;85.304;2022-10-16T14:00:54;22.00;92.00
50907;DHT22;36882;27.680;85.304;2022-10-16T14:03:27;22.00;92.10
50907;DHT22;36882;27.680;85.304;2022-10-16T14:06:01;21.90;91.90
50907;DHT22;36882;27.680;85.304;2022-10-16T14:08:32;23.30;92.30
50907;DHT22;36882;27.680;85.304;2022-10-16T14:11:02;21.80;91.30
50907;DHT22;36882;27.680;85.304;2022-10-16T14:13:38;21.80;90.80
50907;DHT22;36882;27.680;85.304;2022-10-16T14:16:16;21.80;90.60
50907;DHT22;36882;27.680;85.304;2022-10-16T14:19:04;21.70;89.90
50907;DHT22;36882;27.680;85.304;2022-10-16T14:21:38;21.70;90.00
50907;DHT22;36882;27.680;85.304;2022-10-16T14:24:13;21.70;90.00
50907;DHT22;36882;27.680;85.304;2022-10-16T14:26:51;21.60;90.00
50907;DHT22;36882;27.680;85.304;2022-10-16T14:29:26;21.60;89.80
50907;DHT22;36882;27.680;85.304;2022-10-16T14:32:02;21.50;90.00
50907;DHT22;36882;27.680;85.304;2022-10-16T14:34:36;21.50;90.00
50907;DHT22;36882;27.680;85.304;2022-10-16T14:37:25;21.40;90.00
50907;DHT22;36882;27.680;85.304;2022-10-16T14:39:56;21.40;90.10
50907;DHT22;36882;27.680;85.304;2022-10-16T14:42:26;21.40;89.30
50907;DHT22;36882;27.680;85.304;2022-10-16T14:44:57;21.50;89.50
50907;DHT22;36882;27.680;85.304;2022-10-16T14:47:26;21.40;88.50
50907;DHT22;36882;27.680;85.304;2022-10-16T14:49:57;21.40;88.80
50907;DHT22;36882;27.680;85.304;2022-10-16T14:52:28;21.40;88.70
50907;DHT22;36882;27.680;85.304;2022-10-16T14:54:58;21.40;89.40
50907;DHT22;36882;27.680;85.304;2022-10-16T14:57:32;21.30;89.40
50907;DHT22;36882;27.680;85.304;2022-10-16T15:00:08;21.30;88.50
50907;DHT22;36882;27.680;85.304;2022-10-16T15:02:44;21.20;87.40
50907;DHT22;36882;27.680;85.304;2022-10-16T15:05:20;21.20;87.00
50907;DHT22;36882;27.680;85.304;2022-10-16T15:07:52;21.20;86.80
50907;DHT22;36882;27.680;85.304;2022-10-16T15:10:24;21.20;86.30
50907;DHT22;36882;27.680;85.304;2022-10-16T15:12:55;21.10;86.10
50907;DHT22;36882;27.680;85.304;2022-10-16T15:15:36;21.10;85.60
50907;DHT22;36882;27.680;85.304;2022-10-16T15:18:06;21.00;86.90
50907;DHT22;36882;27.680;85.304;2022-10-16T15:20:38;20.90;88.10
50907;DHT22;36882;27.680;85.304;2022-10-16T15:23:25;20.80;87.70
50907;DHT22;36882;27.680;85.304;2022-10-16T15:25:56;20.80;87.60
50907;DHT22;36882;27.680;85.304;2022-10-16T15:28:26;20.80;88.90
50907;DHT22;36882;27.680;85.304;2022-10-16T15:30:57;20.80;88.40
50907;DHT22;36882;27.680;85.304;2022-10-16T15:33:27;20.80;88.30
50907;DHT22;36882;27.680;85.304;2022-10-16T15:36:07;20.70;88.60
50907;DHT22;36882;27.680;85.304;2022-10-16T15:38:36;20.80;88.30
50907;DHT22;36882;27.680;85.304;2022-10-16T15:41:06;20.70;88.90
50907;DHT22;36882;27.680;85.304;2022-10-16T15:43:36;20.80;88.10
50907;DHT22;36882;27.680;85.304;2022-10-16T15:46:09;20.70;88.10
50907;DHT22;36882;27.680;85.304;2022-10-16T15:48:40;20.60;88.70
50907;DHT22;36882;27.680;85.304;2022-10-16T15:51:09;20.60;87.30
50907;DHT22;36882;27.680;85.304;2022-10-16T15:53:39;20.60;87.60
50907;DHT22;36882;27.680;85.304;2022-10-16T15:56:11;20.60;88.00
50907;DHT22;36882;27.680;85.304;2022-10-16T15:58:43;20.50;87.20
50907;DHT22;36882;27.680;85.304;2022-10-16T16:01:13;20.60;88.80
50907;DHT22;36882;27.680;85.304;2022-10-16T16:03:42;20.50;88.80
50907;DHT22;36882;27.680;85.304;2022-10-16T16:06:13;20.50;87.70
50907;DHT22;36882;27.680;85.304;2022-10-16T16:08:44;20.50;87.60
50907;DHT22;36882;27.680;85.304;2022-10-16T16:11:15;20.40;86.80
50907;DHT22;36882;27.680;85.304;2022-10-16T16:13:45;20.30;87.70
50907;DHT22;36882;27.680;85.304;2022-10-16T16:16:16;20.30;87.20
50907;DHT22;36882;27.680;85.304;2022-10-16T16:18:50;20.20;86.20
50907;DHT22;36882;27.680;85.304;2022-10-16T16:21:22;20.20;86.70
50907;DHT22;36882;27.680;85.304;2022-10-16T16:23:51;20.20;86.70
50907;DHT22;36882;27.680;85.304;2022-10-16T16:26:27;20.20;87.70
50907;DHT22;36882;27.680;85.304;2022-10-16T16:29:02;20.20;87.70
50907;DHT22;36882;27.680;85.304;2022-10-16T16:31:32;20.20;87.10
50907;DHT22;36882;27.680;85.304;2022-10-16T16:34:03;20.10;87.60
50907;DHT22;36882;27.680;85.304;2022-10-16T16:36:34;20.20;89.20
50907;DHT22;36882;27.680;85.304;2022-10-16T16:39:04;20.10;89.60
50907;DHT22;36882;27.680;85.304;2022-10-16T16:41:34;20.10;89.00
50907;DHT22;36882;27.680;85.304;2022-10-16T16:44:05;20.10;88.30
50907;DHT22;36882;27.680;85.304;2022-10-16T16:46:37;20.10;88.70
50907;DHT22;36882;27.680;85.304;2022-10-16T16:49:11;20.10;89.30
50907;DHT22;36882;27.680;85.304;2022-10-16T16:51:42;20.00;88.90
50907;DHT22;36882;27.680;85.304;2022-10-16T16:54:11;20.00;88.40
50907;DHT22;36882;27.680;85.304;2022-10-16T16:56:44;19.90;88.90
50907;DHT22;36882;27.680;85.304;2022-10-16T16:59:16;20.00;89.70